createdAt,value
2023-03-17T00:00:15.239Z,6.61
2023-03-17T00:02:43.638Z,6.69
2023-03-17T00:05:17.539Z,6.48
2023-03-17T00:07:45.315Z,5.58
2023-03-17T00:10:19.127Z,5.72
2023-03-17T00:12:46.121Z,5.78
2023-03-17T00:15:13.939Z,6.32
2023-03-17T00:17:41.110Z,5.62
2023-03-17T00:20:11.745Z,5.61
2023-03-17T00:22:38.571Z,6.08
2023-03-17T00:25:16.815Z,5.31
2023-03-17T00:27:43.917Z,5.64
2023-03-17T00:30:11.390Z,5.96
2023-03-17T00:32:38.505Z,6.32
2023-03-17T00:35:14.833Z,5.81
2023-03-17T00:37:41.977Z,6.39
2023-03-17T00:40:19.101Z,6.67
2023-03-17T00:42:46.307Z,6.91
2023-03-17T00:45:14.513Z,6.50
2023-03-17T00:47:41.562Z,6.95
2023-03-17T00:50:13.077Z,6.22
2023-03-17T00:52:40.729Z,6.34
2023-03-17T00:55:09.389Z,6.79
2023-03-17T00:57:37.488Z,6.11
2023-03-17T01:00:05.118Z,6.29
2023-03-17T01:02:32.293Z,6.60
2023-03-17T01:05:06.409Z,6.03
2023-03-17T01:07:34.000Z,6.24
2023-03-17T01:10:01.276Z,6.18
2023-03-17T01:12:28.029Z,5.83
2023-03-17T01:14:54.808Z,6.43
2023-03-17T01:17:22.115Z,6.13
2023-03-17T01:19:49.259Z,6.20
2023-03-17T01:22:15.880Z,6.22
2023-03-17T01:24:42.541Z,6.06
2023-03-17T01:27:09.461Z,5.57
2023-03-17T01:29:36.924Z,5.95
2023-03-17T01:32:04.036Z,6.25
2023-03-17T01:34:30.714Z,6.29
2023-03-17T01:36:57.389Z,6.25
2023-03-17T01:39:24.049Z,6.13
2023-03-17T01:41:56.812Z,6.34
2023-03-17T01:44:23.929Z,6.09
2023-03-17T01:46:50.468Z,6.44
2023-03-17T01:49:17.194Z,6.73
2023-03-17T01:52:01.067Z,6.15
2023-03-17T01:54:35.011Z,6.47
2023-03-17T01:57:23.319Z,6.90
2023-03-17T01:59:52.722Z,6.18
2023-03-17T02:02:22.678Z,5.88
2023-03-17T02:04:52.154Z,6.51
2023-03-17T02:07:20.502Z,6.00
2023-03-17T02:09:47.817Z,6.24
2023-03-17T02:12:15.387Z,5.92
2023-03-17T02:14:42.009Z,6.75
2023-03-17T02:17:08.702Z,6.80
2023-03-17T02:19:35.689Z,6.52
2023-03-17T02:22:02.667Z,6.91
2023-03-17T02:24:34.839Z,6.46
2023-03-17T02:27:05.753Z,6.06
2023-03-17T02:29:34.155Z,6.80
2023-03-17T02:32:01.043Z,5.88
2023-03-17T02:34:29.912Z,6.27
2023-03-17T02:36:57.230Z,6.20
2023-03-17T02:39:24.163Z,6.90
2023-03-17T02:41:51.151Z,6.79
2023-03-17T02:44:17.852Z,6.97
2023-03-17T02:46:44.722Z,7.32
2023-03-17T02:49:12.046Z,6.92
2023-03-17T02:51:38.892Z,6.78
2023-03-17T02:54:05.808Z,6.26
2023-03-17T02:56:32.817Z,6.37
2023-03-17T02:58:59.482Z,6.57
2023-03-17T03:01:26.918Z,6.49
2023-03-17T03:03:53.643Z,6.32
2023-03-17T03:06:20.355Z,6.15
2023-03-17T03:08:47.098Z,6.20
2023-03-17T03:11:14.171Z,6.36
2023-03-17T03:13:40.892Z,6.22
2023-03-17T03:16:08.300Z,6.15
2023-03-17T03:18:35.369Z,6.09
2023-03-17T03:21:01.964Z,6.19
2023-03-17T03:23:28.560Z,6.01
2023-03-17T03:25:55.805Z,6.19
2023-03-17T03:28:22.676Z,5.79
2023-03-17T03:30:49.465Z,6.06
2023-03-17T03:33:16.917Z,6.18
2023-03-17T03:35:44.454Z,6.58
2023-03-17T03:38:11.709Z,6.39
2023-03-17T03:40:38.893Z,5.94
2023-03-17T03:43:16.341Z,6.46
2023-03-17T03:45:46.612Z,6.11
2023-03-17T03:48:13.536Z,6.02
2023-03-17T03:50:40.447Z,6.31
2023-03-17T03:53:07.331Z,6.25
2023-03-17T03:55:34.177Z,6.60
2023-03-17T03:58:00.778Z,6.36
2023-03-17T04:00:27.501Z,6.10
2023-03-17T04:02:55.355Z,6.30
2023-03-17T04:05:22.250Z,6.64
2023-03-17T04:07:48.933Z,6.99
2023-03-17T04:10:16.061Z,6.56
2023-03-17T04:12:43.114Z,6.76
2023-03-17T04:15:11.347Z,7.22
2023-03-17T04:17:38.194Z,7.36
2023-03-17T04:20:05.355Z,7.19
2023-03-17T04:22:31.947Z,6.92
2023-03-17T04:24:58.595Z,6.98
2023-03-17T04:27:25.515Z,6.73
2023-03-17T04:29:52.715Z,7.02
2023-03-17T04:32:19.423Z,7.07
2023-03-17T04:34:46.107Z,7.10
2023-03-17T04:37:12.907Z,7.33
2023-03-17T04:39:39.709Z,6.98
2023-03-17T04:42:07.654Z,5.83
2023-03-17T04:44:34.376Z,6.55
2023-03-17T04:47:01.046Z,6.26
2023-03-17T04:49:28.097Z,6.33
2023-03-17T04:51:54.802Z,6.70
2023-03-17T04:54:21.801Z,6.68
2023-03-17T04:56:48.542Z,6.96
2023-03-17T04:59:16.235Z,6.60
2023-03-17T05:01:44.016Z,6.54
2023-03-17T05:04:12.797Z,6.00
2023-03-17T05:06:43.521Z,6.42
2023-03-17T05:09:10.164Z,6.79
2023-03-17T05:11:37.136Z,7.07
2023-03-17T05:14:03.672Z,7.18
2023-03-17T05:16:30.908Z,7.40
2023-03-17T05:18:57.588Z,7.50
2023-03-17T05:21:24.229Z,7.39
2023-03-17T05:23:51.581Z,7.42
2023-03-17T05:26:19.595Z,7.39
2023-03-17T05:28:48.458Z,7.02
2023-03-17T05:31:15.148Z,7.66
2023-03-17T05:33:41.837Z,7.69
2023-03-17T05:36:08.718Z,6.92
2023-03-17T05:38:36.010Z,6.78
2023-03-17T05:41:04.230Z,7.18
2023-03-17T05:43:31.244Z,6.96
2023-03-17T05:45:57.916Z,7.34
2023-03-17T05:48:24.669Z,7.18
2023-03-17T05:50:51.281Z,7.63
2023-03-17T05:53:18.713Z,7.34
2023-03-17T05:55:45.436Z,6.68
2023-03-17T05:58:12.926Z,6.56
2023-03-17T06:00:39.582Z,7.17
2023-03-17T06:03:06.630Z,7.23
2023-03-17T06:05:33.768Z,7.37
2023-03-17T06:08:00.726Z,7.14
2023-03-17T06:10:27.780Z,6.62
2023-03-17T06:12:54.565Z,6.72
2023-03-17T06:15:21.205Z,6.86
2023-03-17T06:17:47.854Z,7.19
2023-03-17T06:20:14.813Z,7.65
2023-03-17T06:23:00.468Z,7.27
2023-03-17T06:25:29.944Z,6.96
2023-03-17T06:27:57.699Z,7.42
2023-03-17T06:30:25.303Z,7.24
2023-03-17T06:32:51.993Z,7.43
2023-03-17T06:35:18.920Z,7.46
2023-03-17T06:37:45.532Z,7.17
2023-03-17T06:40:12.573Z,7.36
2023-03-17T06:42:39.447Z,8.14
2023-03-17T06:45:06.668Z,7.57
2023-03-17T06:47:34.152Z,7.77
2023-03-17T06:50:00.855Z,7.64
2023-03-17T06:52:27.841Z,7.79
2023-03-17T06:54:54.426Z,7.95
2023-03-17T06:57:21.152Z,7.73
2023-03-17T06:59:47.980Z,8.07
2023-03-17T07:02:15.288Z,7.98
2023-03-17T07:04:42.279Z,7.72
2023-03-17T07:07:09.458Z,7.98
2023-03-17T07:09:36.405Z,7.75
2023-03-17T07:12:06.100Z,7.70
2023-03-17T07:14:34.372Z,7.81
2023-03-17T07:17:01.981Z,7.98
2023-03-17T07:19:29.276Z,7.49
2023-03-17T07:21:56.490Z,8.09
2023-03-17T07:24:23.746Z,8.33
2023-03-17T07:26:50.378Z,8.40
2023-03-17T07:29:17.530Z,7.90
2023-03-17T07:31:44.864Z,7.72
2023-03-17T07:34:12.768Z,8.19
2023-03-17T07:36:39.979Z,8.27
2023-03-17T07:39:06.925Z,7.35
2023-03-17T07:41:33.662Z,8.05
2023-03-17T07:44:00.798Z,8.65
2023-03-17T07:46:27.772Z,8.76
2023-03-17T07:48:54.657Z,8.14
2023-03-17T07:51:23.250Z,8.66
2023-03-17T07:53:53.117Z,8.61
2023-03-17T07:56:19.686Z,9.46
2023-03-17T07:58:46.384Z,9.48
2023-03-17T08:01:13.150Z,9.36
2023-03-17T08:03:41.479Z,9.40
2023-03-17T08:06:08.712Z,9.89
2023-03-17T08:08:36.024Z,10.03
2023-03-17T08:11:03.808Z,10.12
2023-03-17T08:13:33.396Z,10.11
2023-03-17T08:16:00.713Z,9.58
2023-03-17T08:18:27.592Z,9.67
2023-03-17T08:20:54.187Z,10.04
2023-03-17T08:23:21.594Z,10.05
2023-03-17T08:25:48.833Z,9.77
2023-03-17T08:28:16.546Z,9.87
2023-03-17T08:30:44.826Z,10.41
2023-03-17T08:33:11.540Z,10.64
2023-03-17T08:35:40.585Z,10.58
2023-03-17T08:38:07.857Z,10.79
2023-03-17T08:40:34.957Z,10.82
2023-03-17T08:43:01.915Z,10.88
2023-03-17T08:45:28.975Z,10.97
2023-03-17T08:47:55.944Z,10.93
2023-03-17T08:50:23.682Z,10.58
2023-03-17T08:52:51.520Z,10.43
2023-03-17T08:55:18.876Z,10.74
2023-03-17T08:57:45.858Z,10.95
2023-03-17T09:00:16.282Z,10.91
2023-03-17T09:02:43.679Z,10.61
2023-03-17T09:05:12.819Z,10.91
2023-03-17T09:07:40.161Z,11.11
2023-03-17T09:10:08.167Z,10.91
2023-03-17T09:12:35.105Z,11.04
2023-03-17T09:15:01.929Z,10.29
2023-03-17T09:17:28.706Z,10.82
2023-03-17T09:19:56.290Z,11.06
2023-03-17T09:22:23.232Z,11.20
2023-03-17T09:24:49.830Z,11.32
2023-03-17T09:27:16.781Z,11.55
2023-03-17T09:29:43.384Z,11.37
2023-03-17T09:32:10.399Z,10.92
2023-03-17T09:34:37.405Z,10.84
2023-03-17T09:37:03.922Z,10.55
2023-03-17T09:39:30.748Z,10.57
2023-03-17T09:42:12.603Z,10.73
2023-03-17T09:44:39.233Z,10.82
2023-03-17T09:47:10.549Z,11.35
2023-03-17T09:49:39.840Z,11.40
2023-03-17T09:52:11.902Z,11.59
2023-03-17T09:54:39.013Z,11.39
2023-03-17T09:57:18.026Z,11.64
2023-03-17T09:59:47.390Z,11.69
2023-03-17T10:02:30.766Z,11.59
2023-03-17T10:04:58.099Z,11.37
2023-03-17T10:07:37.706Z,11.35
2023-03-17T10:10:05.715Z,11.44
2023-03-17T10:12:41.751Z,11.50
2023-03-17T10:15:19.847Z,11.44
2023-03-17T10:17:47.664Z,11.25
2023-03-17T10:20:28.639Z,11.44
2023-03-17T10:22:58.206Z,11.65
2023-03-17T10:25:29.275Z,11.91
2023-03-17T10:28:02.281Z,11.81
2023-03-17T10:30:31.155Z,11.56
2023-03-17T10:32:59.704Z,11.84
2023-03-17T10:35:27.916Z,11.99
2023-03-17T10:38:07.891Z,12.20
2023-03-17T10:40:41.644Z,12.26
2023-03-17T10:43:16.537Z,12.21
2023-03-17T10:45:47.862Z,12.45
2023-03-17T10:48:18.647Z,12.03
2023-03-17T10:50:48.587Z,12.24
2023-03-17T10:53:28.412Z,12.34
2023-03-17T10:55:59.616Z,12.38
2023-03-17T10:58:37.489Z,12.45
2023-03-17T11:01:27.120Z,12.67
2023-03-17T11:03:53.974Z,11.99
2023-03-17T11:06:26.449Z,12.25
2023-03-17T11:08:54.835Z,12.25
2023-03-17T11:11:23.381Z,12.31
2023-03-17T11:13:49.975Z,12.64
2023-03-17T11:16:16.556Z,11.85
2023-03-17T11:18:43.345Z,12.18
2023-03-17T11:21:11.111Z,12.12
2023-03-17T11:23:51.292Z,12.47
2023-03-17T11:26:27.708Z,12.94
2023-03-17T11:29:05.831Z,13.40
2023-03-17T11:31:35.268Z,12.93
2023-03-17T11:34:09.385Z,13.55
2023-03-17T11:36:44.740Z,13.56
2023-03-17T11:39:24.162Z,13.74
2023-03-17T11:42:06.910Z,13.46
2023-03-17T11:44:47.474Z,13.51
2023-03-17T11:47:39.322Z,13.75
2023-03-17T11:50:23.297Z,13.58
2023-03-17T11:52:50.031Z,13.97
2023-03-17T11:55:17.614Z,14.41
2023-03-17T11:57:44.289Z,14.83
2023-03-17T12:00:18.693Z,14.87
2023-03-17T12:02:58.095Z,14.78
2023-03-17T12:05:28.752Z,14.93
2023-03-17T12:07:55.409Z,15.10
2023-03-17T12:10:22.820Z,14.64
2023-03-17T12:12:58.978Z,14.67
2023-03-17T12:15:36.468Z,15.12
2023-03-17T12:18:12.077Z,15.25
2023-03-17T12:20:41.568Z,15.27
2023-03-17T12:23:31.802Z,15.05
2023-03-17T12:26:07.834Z,15.42
2023-03-17T12:28:38.833Z,15.34
2023-03-17T12:31:12.605Z,15.17
2023-03-17T12:33:50.142Z,15.17
2023-03-17T12:36:17.859Z,15.40
2023-03-17T12:39:05.403Z,15.64
2023-03-17T12:41:41.091Z,15.66
2023-03-17T12:44:17.981Z,15.84
2023-03-17T12:46:47.730Z,15.76
2023-03-17T12:49:32.989Z,15.48
2023-03-17T12:52:06.786Z,15.98
2023-03-17T12:54:35.850Z,15.81
2023-03-17T12:57:05.561Z,16.01
2023-03-17T12:59:34.079Z,16.15
2023-03-17T13:02:15.682Z,16.14
2023-03-17T13:04:52.090Z,15.33
2023-03-17T13:07:26.861Z,15.67
2023-03-17T13:09:53.672Z,15.92
2023-03-17T13:12:39.027Z,16.58
2023-03-17T13:15:23.531Z,17.18
2023-03-17T13:17:50.094Z,17.32
2023-03-17T13:20:20.185Z,17.86
2023-03-17T13:23:02.201Z,17.86
2023-03-17T13:25:34.933Z,18.56
2023-03-17T13:28:04.349Z,18.80
2023-03-17T13:30:36.856Z,18.86
2023-03-17T13:33:15.163Z,19.16
2023-03-17T13:35:51.001Z,18.61
2023-03-17T13:38:17.671Z,18.18
2023-03-17T13:40:53.373Z,17.42
2023-03-17T13:43:49.196Z,17.62
2023-03-17T13:46:25.586Z,17.83
2023-03-17T13:48:56.880Z,18.37
2023-03-17T13:51:32.031Z,18.23
2023-03-17T13:54:19.344Z,18.20
2023-03-17T13:56:48.775Z,18.71
2023-03-17T13:59:15.561Z,19.48
2023-03-17T14:01:48.325Z,18.79
2023-03-17T14:04:40.942Z,19.11
2023-03-17T14:07:13.581Z,18.79
2023-03-17T14:09:42.186Z,18.76
2023-03-17T14:12:17.592Z,18.11
2023-03-17T14:14:53.186Z,18.77
2023-03-17T14:17:23.502Z,18.87
2023-03-17T14:19:59.886Z,18.79
2023-03-17T14:22:26.720Z,18.28
2023-03-17T14:24:54.788Z,18.80
2023-03-17T14:27:22.541Z,18.38
2023-03-17T14:29:49.245Z,18.44
2023-03-17T14:32:17.686Z,18.52
2023-03-17T14:34:52.957Z,18.53
2023-03-17T14:37:19.978Z,18.14
2023-03-17T14:39:54.720Z,17.61
2023-03-17T14:42:31.427Z,16.87
2023-03-17T14:45:02.435Z,17.19
2023-03-17T14:47:31.113Z,16.47
2023-03-17T14:49:57.661Z,17.03
2023-03-17T14:52:27.327Z,17.18
2023-03-17T14:54:55.121Z,16.88
2023-03-17T14:57:23.704Z,16.14
2023-03-17T14:59:58.393Z,16.11
2023-03-17T15:02:28.496Z,16.31
2023-03-17T15:05:17.838Z,16.92
2023-03-17T15:07:44.518Z,16.39
2023-03-17T15:10:18.373Z,16.02
2023-03-17T15:12:48.764Z,15.18
2023-03-17T15:15:21.719Z,15.01
2023-03-17T15:17:51.161Z,14.46
2023-03-17T15:20:19.867Z,14.31
2023-03-17T15:22:56.557Z,14.54
2023-03-17T15:25:29.152Z,14.50
2023-03-17T15:27:56.029Z,13.96
2023-03-17T15:30:22.850Z,13.95
2023-03-17T15:32:57.607Z,13.87
2023-03-17T15:35:24.205Z,13.35
2023-03-17T15:37:50.992Z,13.27
2023-03-17T15:40:18.193Z,13.76
2023-03-17T15:42:45.729Z,13.77
2023-03-17T15:45:16.351Z,13.79
2023-03-17T15:47:44.045Z,13.74
2023-03-17T15:50:16.125Z,14.09
2023-03-17T15:52:42.984Z,14.05
2023-03-17T15:55:15.206Z,14.24
2023-03-17T15:57:46.153Z,14.30
2023-03-17T16:00:19.049Z,13.77
2023-03-17T16:02:46.888Z,13.64
2023-03-17T16:05:21.492Z,13.48
2023-03-17T16:07:48.380Z,13.35
2023-03-17T16:10:25.400Z,13.43
2023-03-17T16:12:52.543Z,13.45
2023-03-17T16:15:24.964Z,13.18
2023-03-17T16:17:53.685Z,13.07
2023-03-17T16:20:24.996Z,13.31
2023-03-17T16:22:57.054Z,13.54
2023-03-17T16:25:30.930Z,13.32
2023-03-17T16:27:58.639Z,13.16
2023-03-17T16:30:33.044Z,13.07
2023-03-17T16:33:02.328Z,13.18
2023-03-17T16:35:29.564Z,13.10
2023-03-17T16:37:56.275Z,13.10
2023-03-17T16:40:24.750Z,12.92
2023-03-17T16:42:51.943Z,13.01
2023-03-17T16:45:22.089Z,12.94
2023-03-17T16:47:49.473Z,12.83
2023-03-17T16:50:17.583Z,12.88
2023-03-17T16:52:44.644Z,12.60
2023-03-17T16:55:11.991Z,12.86
2023-03-17T16:57:38.974Z,12.85
2023-03-17T17:00:06.208Z,12.79
2023-03-17T17:02:32.834Z,12.43
2023-03-17T17:05:01.925Z,12.52
2023-03-17T17:07:29.805Z,12.52
2023-03-17T17:09:56.552Z,12.42
2023-03-17T17:12:23.168Z,12.10
2023-03-17T17:14:49.907Z,12.34
2023-03-17T17:17:16.549Z,12.36
2023-03-17T17:19:43.312Z,12.15
2023-03-17T17:22:11.244Z,11.93
2023-03-17T17:24:38.000Z,12.23
2023-03-17T17:27:04.695Z,12.30
2023-03-17T17:29:32.490Z,12.33
2023-03-17T17:32:01.287Z,12.24
2023-03-17T17:34:28.028Z,12.14
2023-03-17T17:36:54.719Z,12.02
2023-03-17T17:39:21.498Z,11.99
2023-03-17T17:41:48.592Z,11.97
2023-03-17T17:44:15.443Z,11.92
2023-03-17T17:46:42.463Z,11.69
2023-03-17T17:49:10.737Z,11.78
2023-03-17T17:51:37.688Z,11.58
2023-03-17T17:54:04.312Z,11.71
2023-03-17T17:56:36.587Z,11.65
2023-03-17T17:59:03.345Z,11.74
2023-03-17T18:01:33.380Z,11.51
2023-03-17T18:04:00.205Z,11.55
2023-03-17T18:06:26.935Z,11.50
2023-03-17T18:08:55.183Z,11.47
2023-03-17T18:11:21.969Z,11.57
2023-03-17T18:13:48.649Z,11.46
2023-03-17T18:16:16.302Z,11.34
2023-03-17T18:18:45.685Z,11.49
2023-03-17T18:21:13.504Z,11.66
2023-03-17T18:23:47.138Z,11.56
2023-03-17T18:26:15.159Z,11.54
2023-03-17T18:28:42.417Z,11.30
2023-03-17T18:31:12.052Z,11.16
2023-03-17T18:33:39.870Z,11.08
2023-03-17T18:36:07.102Z,11.09
2023-03-17T18:38:34.230Z,10.88
2023-03-17T18:41:02.455Z,10.70
2023-03-17T18:43:29.258Z,10.61
2023-03-17T18:45:56.087Z,10.85
2023-03-17T18:48:22.708Z,10.69
2023-03-17T18:50:49.616Z,10.89
2023-03-17T18:53:17.033Z,10.68
2023-03-17T18:55:43.895Z,10.44
2023-03-17T18:58:10.642Z,10.61
2023-03-17T19:00:37.346Z,10.76
2023-03-17T19:03:04.172Z,10.62
2023-03-17T19:05:31.237Z,10.73
2023-03-17T19:07:58.134Z,10.52
2023-03-17T19:10:24.749Z,10.47
2023-03-17T19:12:52.352Z,10.55
2023-03-17T19:15:19.682Z,10.41
2023-03-17T19:17:47.169Z,10.24
2023-03-17T19:20:13.997Z,10.34
2023-03-17T19:22:41.659Z,10.19
2023-03-17T19:25:09.194Z,10.27
2023-03-17T19:27:36.143Z,10.38
2023-03-17T19:30:02.889Z,10.40
2023-03-17T19:32:29.881Z,10.11
2023-03-17T19:34:56.607Z,10.27
2023-03-17T19:37:23.240Z,10.21
2023-03-17T19:39:49.939Z,10.07
2023-03-17T19:42:17.438Z,9.90
2023-03-17T19:44:44.422Z,9.98
2023-03-17T19:47:11.404Z,9.10
2023-03-17T19:49:38.299Z,8.85
2023-03-17T19:52:06.397Z,8.39
2023-03-17T19:54:33.859Z,8.47
2023-03-17T19:57:00.586Z,8.78
2023-03-17T19:59:27.393Z,9.28
2023-03-17T20:01:54.286Z,9.56
2023-03-17T20:04:23.058Z,9.65
2023-03-17T20:06:55.407Z,9.89
2023-03-17T20:09:25.453Z,9.97
2023-03-17T20:11:53.323Z,9.88
2023-03-17T20:14:20.887Z,9.92
2023-03-17T20:16:48.383Z,9.97
2023-03-17T20:19:16.255Z,9.98
2023-03-17T20:21:44.316Z,9.90
2023-03-17T20:24:12.783Z,10.00
2023-03-17T20:26:40.927Z,9.96
2023-03-17T20:29:08.576Z,9.98
2023-03-17T20:31:35.590Z,9.80
2023-03-17T20:34:02.327Z,9.85
2023-03-17T20:36:28.995Z,9.76
2023-03-17T20:38:56.938Z,9.77
2023-03-17T20:41:23.988Z,9.71
2023-03-17T20:43:52.196Z,8.98
2023-03-17T20:46:20.265Z,9.16
2023-03-17T20:48:48.262Z,9.30
2023-03-17T20:51:16.938Z,9.48
2023-03-17T20:53:44.722Z,9.16
2023-03-17T20:56:15.664Z,9.30
2023-03-17T20:58:45.679Z,9.23
2023-03-17T21:01:12.977Z,9.13
2023-03-17T21:03:40.238Z,9.20
2023-03-17T21:06:07.441Z,9.19
2023-03-17T21:08:34.142Z,9.24
2023-03-17T21:11:01.284Z,9.14
2023-03-17T21:13:28.424Z,9.21
2023-03-17T21:15:55.821Z,9.28
2023-03-17T21:18:23.423Z,9.19
2023-03-17T21:20:50.771Z,9.30
2023-03-17T21:23:17.379Z,9.16
2023-03-17T21:25:44.268Z,9.02
2023-03-17T21:28:11.443Z,8.93
2023-03-17T21:30:38.097Z,9.00
2023-03-17T21:33:04.806Z,8.97
2023-03-17T21:35:34.592Z,8.93
2023-03-17T21:38:02.040Z,8.83
2023-03-17T21:40:31.311Z,8.85
2023-03-17T21:42:58.459Z,8.91
2023-03-17T21:45:25.136Z,8.79
2023-03-17T21:47:51.950Z,8.60
2023-03-17T21:50:21.866Z,8.59
2023-03-17T21:52:48.891Z,8.55
2023-03-17T21:55:15.902Z,8.40
2023-03-17T21:57:43.071Z,8.44
2023-03-17T22:00:11.736Z,8.48
2023-03-17T22:02:41.906Z,8.32
2023-03-17T22:05:10.450Z,8.53
2023-03-17T22:07:38.564Z,8.23
2023-03-17T22:10:07.407Z,8.31
2023-03-17T22:12:35.273Z,7.67
2023-03-17T22:15:03.815Z,7.27
2023-03-17T22:17:32.705Z,7.61
2023-03-17T22:19:59.555Z,7.70
2023-03-17T22:22:26.390Z,7.81
2023-03-17T22:24:53.277Z,7.78
2023-03-17T22:27:20.066Z,7.84
2023-03-17T22:29:47.549Z,7.93
2023-03-17T22:32:14.428Z,7.80
2023-03-17T22:34:41.425Z,7.97
2023-03-17T22:37:08.495Z,8.06
2023-03-17T22:39:35.513Z,8.11
2023-03-17T22:42:02.535Z,7.90
2023-03-17T22:44:29.510Z,8.19
2023-03-17T22:46:56.502Z,7.88
2023-03-17T22:49:24.229Z,7.72
2023-03-17T22:51:51.002Z,7.75
2023-03-17T22:54:18.749Z,7.87
2023-03-17T22:56:45.763Z,7.88
2023-03-17T22:59:12.676Z,7.62
2023-03-17T23:01:39.670Z,7.60
2023-03-17T23:04:07.056Z,7.67
2023-03-17T23:06:35.246Z,7.81
2023-03-17T23:09:02.777Z,7.77
2023-03-17T23:11:29.746Z,7.90
2023-03-17T23:13:56.528Z,7.84
2023-03-17T23:16:23.950Z,7.77
2023-03-17T23:18:51.027Z,7.82
2023-03-17T23:21:32.496Z,7.49
2023-03-17T23:24:00.731Z,7.47
2023-03-17T23:26:28.321Z,7.64
2023-03-17T23:28:55.192Z,7.64
2023-03-17T23:31:22.764Z,7.65
2023-03-17T23:33:50.557Z,7.68
2023-03-17T23:36:17.876Z,7.71
2023-03-17T23:38:45.951Z,7.41
2023-03-17T23:41:14.494Z,7.39
2023-03-17T23:43:41.962Z,7.48
2023-03-17T23:46:08.810Z,7.34
2023-03-17T23:48:36.010Z,7.25
2023-03-17T23:51:03.366Z,7.23
2023-03-17T23:53:31.578Z,7.14
2023-03-17T23:55:59.728Z,7.42
2023-03-17T23:58:27.528Z,7.31
